Time;durP1;ratioP1;P1;durP2;ratioP2;P2;SDS_P1;SDS_P2;PMS_P1;PMS_P2;Temp;Humidity;BMP_temperature;BMP_pressure;BME280_temperature;BME280_humidity;BME280_pressure;Samples;Min_cycle;Max_cycle;Signal;HPM_P1;HPM_P2
2021/03/21 00:00:52;;;;;;;3.63;1.50;;;2.30;96.10;;;;;;5052898;28;20461;-64
2021/03/21 00:03:20;;;;;;;1.30;1.20;;;2.40;96.00;;;;;;5050462;28;20457;-64
2021/03/21 00:05:46;;;;;;;3.17;1.30;;;2.50;94.20;;;;;;5052924;28;20794;-64
2021/03/21 00:08:16;;;;;;;1.20;1.00;;;2.50;92.00;;;;;;5050655;28;20952;-64
2021/03/21 00:10:46;;;;;;;2.03;1.27;;;2.40;92.40;;;;;;5052479;28;20450;-64
2021/03/21 00:13:13;;;;;;;1.20;1.10;;;2.50;92.40;;;;;;5050211;28;20543;-64
2021/03/21 00:15:40;;;;;;;1.23;1.07;;;2.50;94.10;;;;;;5052522;28;20816;-64
2021/03/21 00:18:08;;;;;;;1.20;1.03;;;2.40;96.10;;;;;;5050105;28;20471;-64
2021/03/21 00:20:37;;;;;;;2.07;1.20;;;2.50;95.70;;;;;;5052453;28;20497;-64
2021/03/21 00:23:04;;;;;;;2.90;1.67;;;2.60;95.30;;;;;;5050109;28;20793;-64
2021/03/21 00:25:32;;;;;;;1.20;1.00;;;2.40;97.00;;;;;;5052298;28;20507;-64
2021/03/21 00:27:59;;;;;;;1.77;1.43;;;2.40;96.90;;;;;;5049634;28;20490;-64
2021/03/21 00:30:28;;;;;;;4.20;2.10;;;2.60;95.10;;;;;;5052044;28;20449;-64
2021/03/21 00:32:55;;;;;;;1.30;1.27;;;2.60;95.30;;;;;;5049735;28;20454;-64
2021/03/21 00:35:22;;;;;;;1.57;1.30;;;2.50;94.90;;;;;;5051680;28;20449;-64
2021/03/21 00:37:49;;;;;;;2.83;1.60;;;2.50;95.50;;;;;;5049722;28;20594;-64
2021/03/21 00:40:19;;;;;;;1.57;1.40;;;2.60;96.00;;;;;;5052096;28;20508;-64
2021/03/21 00:42:46;;;;;;;1.57;1.30;;;2.70;96.30;;;;;;5049444;28;20465;-64
2021/03/21 00:45:14;;;;;;;1.97;1.20;;;2.70;96.60;;;;;;5051706;28;20456;-64
2021/03/21 00:47:40;;;;;;;1.80;1.43;;;2.70;95.70;;;;;;5050018;28;20591;-64
2021/03/21 00:50:10;;;;;;;1.30;1.13;;;2.70;95.40;;;;;;5051976;28;20461;-64
2021/03/21 00:52:37;;;;;;;1.20;1.10;;;2.70;96.70;;;;;;5050077;28;20461;-64
2021/03/21 00:55:05;;;;;;;1.30;1.27;;;2.50;96.30;;;;;;5052128;28;20457;-64
2021/03/21 00:57:32;;;;;;;2.10;1.70;;;2.50;97.10;;;;;;5049387;28;20489;-64
2021/03/21 00:59:58;;;;;;;1.20;1.00;;;2.60;96.70;;;;;;5051915;28;20468;-64
2021/03/21 01:02:25;;;;;;;2.27;1.60;;;2.70;95.50;;;;;;5049411;28;20462;-64
2021/03/21 01:04:51;;;;;;;1.30;1.20;;;2.70;95.50;;;;;;5051708;28;20519;-64
2021/03/21 01:07:18;;;;;;;1.20;1.00;;;2.70;96.10;;;;;;5049168;28;20477;-64
2021/03/21 01:09:45;;;;;;;1.37;1.10;;;2.80;95.60;;;;;;5051634;28;20539;-64
2021/03/21 01:12:13;;;;;;;1.20;1.10;;;2.80;97.00;;;;;;5048792;28;20489;-64
2021/03/21 01:14:39;;;;;;;1.50;1.40;;;2.80;97.00;;;;;;5051582;28;20458;-64
2021/03/21 01:17:10;;;;;;;1.43;1.40;;;2.70;95.50;;;;;;5049262;28;21026;-64
2021/03/21 01:19:37;;;;;;;1.20;1.20;;;2.50;97.60;;;;;;5051419;28;20468;-64
2021/03/21 01:22:04;;;;;;;2.03;1.20;;;2.50;97.00;;;;;;5048791;28;20465;-64
2021/03/21 01:24:30;;;;;;;1.20;1.00;;;2.50;96.50;;;;;;5051406;28;20565;-64
2021/03/21 01:26:58;;;;;;;2.70;1.77;;;2.40;97.30;;;;;;5048976;28;21092;-64
2021/03/21 01:29:25;;;;;;;1.20;1.00;;;2.40;97.80;;;;;;5051175;28;20453;-64
2021/03/21 01:31:55;;;;;;;1.50;1.40;;;2.50;97.40;;;;;;5048749;28;20501;-64
2021/03/21 01:34:21;;;;;;;1.20;1.10;;;2.60;97.00;;;;;;5050596;28;20997;-64
2021/03/21 01:36:48;;;;;;;2.40;1.73;;;2.60;96.80;;;;;;5049574;28;20481;-64
2021/03/21 01:39:21;;;;;;;3.30;2.20;;;2.70;96.30;;;;;;5051248;28;20457;-64
2021/03/21 01:44:37;;;;;;;1.37;1.10;;;2.70;96.60;;;;;;5050910;28;20461;-64
2021/03/21 01:47:17;;;;;;;2.80;2.03;;;2.90;97.00;;;;;;5048814;28;20464;-64
2021/03/21 01:49:47;;;;;;;1.20;1.10;;;3.00;97.50;;;;;;5049731;28;20538;-64
2021/03/21 01:52:32;;;;;;;1.20;1.00;;;2.90;96.30;;;;;;5049123;28;20966;-64
2021/03/21 01:54:59;;;;;;;2.20;1.50;;;2.90;96.70;;;;;;5050952;28;20465;-64
2021/03/21 01:57:26;;;;;;;2.00;1.60;;;2.80;97.50;;;;;;5048606;28;20485;-64
2021/03/21 01:59:55;;;;;;;2.20;1.47;;;2.80;97.50;;;;;;5051456;28;20805;-64
2021/03/21 02:02:22;;;;;;;2.10;1.50;;;2.70;96.60;;;;;;5049101;28;20605;-64
2021/03/21 02:04:48;;;;;;;3.67;1.53;;;2.70;96.90;;;;;;5051246;28;20521;-64
2021/03/21 02:07:30;;;;;;;2.43;1.30;;;2.50;97.80;;;;;;5048361;28;20454;-64
2021/03/21 02:10:05;;;;;;;1.37;1.33;;;2.50;98.00;;;;;;5051093;28;20461;-64
2021/03/21 02:12:38;;;;;;;1.20;1.00;;;2.60;97.10;;;;;;5048753;28;20460;-64
2021/03/21 02:15:12;;;;;;;1.40;1.10;;;2.60;95.90;;;;;;5050936;28;20947;-64
2021/03/21 02:17:44;;;;;;;1.20;1.00;;;2.70;96.40;;;;;;5048622;28;20950;-64
2021/03/21 02:20:44;;;;;;;1.20;1.10;;;2.80;97.10;;;;;;5052342;28;20924;-64
2021/03/21 02:23:15;;;;;;;1.20;1.00;;;2.90;97.20;;;;;;5052612;28;20464;-64
2021/03/21 02:26:06;;;;;;;1.30;1.10;;;2.90;96.20;;;;;;5054823;28;21122;-64
2021/03/21 02:28:51;;;;;;;1.20;1.10;;;2.80;97.80;;;;;;5052507;28;20951;-64
2021/03/21 02:31:26;;;;;;;1.40;1.30;;;2.90;98.00;;;;;;5054410;28;20522;-64
2021/03/21 02:34:05;;;;;;;4.23;2.70;;;2.90;98.00;;;;;;5050837;28;20457;-64
2021/03/21 02:36:42;;;;;;;1.20;1.00;;;2.90;98.00;;;;;;5054307;28;20856;-64
2021/03/21 02:39:13;;;;;;;1.77;1.50;;;2.80;98.00;;;;;;5050585;28;20460;-64
2021/03/21 02:41:44;;;;;;;2.13;1.93;;;2.80;98.00;;;;;;5054217;28;20492;-64
2021/03/21 02:44:15;;;;;;;2.27;1.73;;;2.70;98.00;;;;;;5051939;28;20477;-64
2021/03/21 02:46:45;;;;;;;1.20;1.00;;;2.60;98.00;;;;;;5054420;28;20450;-64
2021/03/21 02:49:20;;;;;;;2.13;1.40;;;2.50;98.00;;;;;;5051483;28;20500;-64
2021/03/21 02:51:51;;;;;;;1.37;1.10;;;2.60;98.00;;;;;;5054117;28;20476;-64
2021/03/21 02:54:25;;;;;;;2.80;1.93;;;2.70;98.00;;;;;;5051671;28;20515;-64
2021/03/21 02:56:58;;;;;;;1.30;1.20;;;2.80;98.00;;;;;;5054097;28;20545;-64
2021/03/21 02:59:29;;;;;;;1.87;1.40;;;2.90;98.00;;;;;;5054289;28;20960;-64
2021/03/21 03:02:00;;;;;;;1.30;1.23;;;2.90;98.00;;;;;;5052754;28;20817;-64
2021/03/21 03:04:31;;;;;;;1.50;1.47;;;2.80;98.00;;;;;;5054125;28;20464;-64
2021/03/21 03:07:04;;;;;;;2.23;2.03;;;2.70;98.00;;;;;;5051976;28;20779;-64
2021/03/21 03:09:37;;;;;;;1.63;1.63;;;2.60;98.00;;;;;;5053807;28;20477;-64
2021/03/21 03:12:10;;;;;;;1.20;1.00;;;2.40;98.00;;;;;;5051202;28;20497;-64
2021/03/21 03:14:39;;;;;;;1.20;1.07;;;2.40;98.00;;;;;;5053130;28;20873;-64
2021/03/21 03:17:21;;;;;;;1.40;1.20;;;2.60;98.00;;;;;;5050854;28;20482;-64
2021/03/21 03:19:54;;;;;;;1.77;1.23;;;2.80;96.60;;;;;;5053828;28;20594;-64
2021/03/21 03:22:25;;;;;;;1.30;1.20;;;3.00;95.10;;;;;;5051568;28;20449;-64
2021/03/21 03:25:02;;;;;;;1.40;1.40;;;2.90;94.80;;;;;;5053622;28;20476;-64
2021/03/21 03:27:36;;;;;;;1.20;1.03;;;3.00;95.40;;;;;;5051476;28;20482;-64
2021/03/21 03:30:10;;;;;;;1.60;1.27;;;2.90;97.50;;;;;;5053470;28;20453;-64
2021/03/21 03:32:38;;;;;;;1.40;1.13;;;2.90;98.00;;;;;;5051555;28;20520;-64
2021/03/21 03:35:11;;;;;;;3.33;1.83;;;2.70;98.00;;;;;;5052039;28;20484;-64
2021/03/21 03:37:39;;;;;;;1.20;1.00;;;2.70;98.00;;;;;;5050660;28;20983;-64
2021/03/21 03:40:10;;;;;;;2.13;1.67;;;2.70;98.00;;;;;;5051914;28;20485;-64
2021/03/21 03:42:47;;;;;;;1.50;1.20;;;2.60;98.00;;;;;;5050949;28;20499;-64
2021/03/21 03:45:20;;;;;;;1.50;1.23;;;2.70;98.00;;;;;;5052881;28;20489;-64
2021/03/21 03:47:58;;;;;;;1.30;1.20;;;2.60;98.00;;;;;;5050853;28;20465;-64
2021/03/21 03:50:37;;;;;;;1.30;1.27;;;2.60;98.00;;;;;;5053068;28;20465;-64
2021/03/21 03:53:11;;;;;;;2.13;1.27;;;2.70;97.70;;;;;;5050153;28;20831;-64
2021/03/21 03:55:50;;;;;;;4.30;2.10;;;2.70;98.00;;;;;;5052998;28;20484;-64
2021/03/21 03:58:19;;;;;;;1.20;1.20;;;2.60;97.50;;;;;;5050538;28;20515;-64
2021/03/21 04:00:51;;;;;;;1.30;1.10;;;2.60;98.00;;;;;;5052991;28;20454;-64
2021/03/21 04:03:29;;;;;;;1.60;1.30;;;2.50;98.00;;;;;;5050729;28;20519;-64
2021/03/21 04:05:59;;;;;;;1.30;1.20;;;2.70;98.00;;;;;;5052766;28;20458;-64
2021/03/21 04:08:34;;;;;;;2.40;1.53;;;2.80;97.90;;;;;;5050653;28;20449;-64
2021/03/21 04:11:07;;;;;;;2.20;1.63;;;2.90;96.00;;;;;;5052816;28;20449;-64
2021/03/21 04:13:39;;;;;;;1.20;1.20;;;3.00;96.60;;;;;;5050338;28;20497;-64
2021/03/21 04:16:07;;;;;;;1.67;1.43;;;3.00;95.70;;;;;;5052112;28;20454;-64
2021/03/21 04:18:39;;;;;;;2.00;1.20;;;2.90;98.00;;;;;;5050570;28;20494;-64
2021/03/21 04:21:11;;;;;;;1.40;1.20;;;2.80;98.00;;;;;;5052493;28;20465;-64
2021/03/21 04:23:46;;;;;;;1.70;1.60;;;2.70;98.00;;;;;;5049862;28;20473;-64
2021/03/21 04:26:17;;;;;;;1.30;1.20;;;2.60;98.00;;;;;;5052459;28;20935;-64
2021/03/21 04:28:49;;;;;;;1.80;1.73;;;2.60;98.00;;;;;;5050308;28;20453;-64
2021/03/21 04:31:17;;;;;;;1.40;1.30;;;2.50;98.00;;;;;;5052415;28;20923;-64
2021/03/21 04:33:48;;;;;;;1.73;1.20;;;2.40;98.00;;;;;;5049945;28;20501;-64
2021/03/21 04:36:20;;;;;;;1.53;1.23;;;2.40;98.00;;;;;;5051983;28;20484;-64
2021/03/21 04:38:52;;;;;;;1.20;1.00;;;2.40;98.00;;;;;;5049808;28;20464;-64
2021/03/21 04:41:27;;;;;;;1.30;1.10;;;2.40;98.00;;;;;;5051979;28;20774;-64
2021/03/21 04:43:59;;;;;;;2.50;1.80;;;2.50;98.00;;;;;;5048673;28;20469;-64
2021/03/21 04:46:29;;;;;;;1.30;1.10;;;2.60;98.00;;;;;;5052038;28;20454;-64
2021/03/21 04:48:57;;;;;;;1.20;1.00;;;2.50;98.00;;;;;;5048430;28;20543;-64
2021/03/21 04:51:27;;;;;;;1.93;1.63;;;2.40;98.00;;;;;;5051725;28;20487;-64
2021/03/21 04:53:57;;;;;;;1.20;1.00;;;2.30;98.00;;;;;;5049631;28;20450;-64
2021/03/21 04:56:30;;;;;;;1.47;1.10;;;2.30;98.00;;;;;;5051607;28;20492;-64
2021/03/21 04:59:02;;;;;;;1.27;1.23;;;2.30;98.00;;;;;;5049328;28;20553;-64
2021/03/21 05:01:36;;;;;;;3.63;2.40;;;2.30;98.00;;;;;;5051904;28;20826;-64
2021/03/21 05:04:11;;;;;;;1.40;1.27;;;2.30;98.00;;;;;;5048798;28;20464;-64
2021/03/21 05:06:50;;;;;;;1.83;1.20;;;2.30;98.00;;;;;;5051593;28;20446;-64
2021/03/21 05:09:22;;;;;;;1.20;1.10;;;2.40;97.80;;;;;;5049544;28;20515;-64
2021/03/21 05:11:54;;;;;;;1.40;1.40;;;2.50;96.60;;;;;;5051644;28;20515;-64
2021/03/21 05:14:27;;;;;;;1.40;1.33;;;2.60;95.70;;;;;;5049120;28;20465;-64
2021/03/21 05:17:04;;;;;;;1.30;1.20;;;2.80;95.50;;;;;;5051827;28;20492;-64
2021/03/21 05:19:42;;;;;;;1.20;1.00;;;3.00;95.00;;;;;;5049046;28;20515;-64
2021/03/21 05:22:21;;;;;;;1.67;1.60;;;3.20;94.60;;;;;;5050740;28;20465;-64
2021/03/21 05:24:53;;;;;;;1.20;1.00;;;3.40;95.10;;;;;;5051640;28;20466;-64
2021/03/21 05:27:26;;;;;;;1.20;1.10;;;3.40;95.90;;;;;;5049312;28;20458;-64
2021/03/21 05:29:57;;;;;;;1.40;1.30;;;3.50;96.20;;;;;;5051491;28;20515;-64
2021/03/21 05:32:25;;;;;;;1.80;1.57;;;3.40;96.30;;;;;;5048747;28;20486;-64
2021/03/21 05:34:54;;;;;;;1.60;1.37;;;3.30;97.60;;;;;;5051328;28;20457;-64
2021/03/21 05:37:29;;;;;;;3.83;1.67;;;3.30;98.00;;;;;;5049087;28;20849;-64
2021/03/21 05:40:12;;;;;;;1.30;1.17;;;3.20;98.00;;;;;;5050795;28;20946;-64
2021/03/21 05:43:27;;;;;;;1.80;1.30;;;3.20;98.00;;;;;;5048261;28;20488;-64
2021/03/21 05:46:21;;;;;;;1.20;1.00;;;3.00;98.00;;;;;;5051442;28;20461;-64
2021/03/21 05:49:32;;;;;;;3.40;1.97;;;3.00;98.00;;;;;;5049101;28;20833;-64
2021/03/21 05:52:27;;;;;;;1.20;1.00;;;2.90;98.00;;;;;;5050952;28;20471;-64
2021/03/21 05:55:34;;;;;;;2.80;1.50;;;2.90;98.00;;;;;;5052286;28;20464;-64
2021/03/21 05:58:35;;;;;;;2.27;1.83;;;2.90;98.00;;;;;;5041917;28;20481;-64
2021/03/21 06:01:53;;;;;;;1.60;1.50;;;2.90;98.00;;;;;;5055058;28;20461;-64
2021/03/21 06:04:58;;;;;;;1.30;1.00;;;2.80;98.00;;;;;;4971541;28;20469;-64
2021/03/21 06:08:06;;;;;;;1.50;1.27;;;2.90;98.00;;;;;;5019880;28;20457;-64
2021/03/21 06:11:16;;;;;;;1.57;1.53;;;2.90;98.00;;;;;;5054682;28;20457;-64
2021/03/21 06:13:57;;;;;;;1.30;1.10;;;2.80;98.00;;;;;;5052685;28;20887;-64
2021/03/21 06:17:03;;;;;;;2.37;1.50;;;3.00;98.00;;;;;;5054755;28;20966;-64
2021/03/21 06:20:16;;;;;;;1.87;1.50;;;3.10;98.00;;;;;;5012717;28;20454;-64
2021/03/21 06:22:54;;;;;;;1.30;1.13;;;3.00;98.00;;;;;;5052680;28;20476;-64
2021/03/21 06:25:52;;;;;;;1.20;1.00;;;3.20;98.00;;;;;;5054810;28;20907;-64
2021/03/21 06:29:04;;;;;;;1.20;1.03;;;3.10;98.00;;;;;;5052171;28;20470;-64
2021/03/21 06:32:16;;;;;;;1.30;1.20;;;3.10;97.50;;;;;;5054566;28;20504;-64
2021/03/21 06:34:50;;;;;;;1.20;1.00;;;3.20;96.20;;;;;;5007040;28;20468;-64
2021/03/21 06:37:44;;;;;;;2.43;2.03;;;3.10;93.90;;;;;;5051317;28;20516;-64
2021/03/21 06:40:42;;;;;;;1.20;1.10;;;3.10;95.90;;;;;;5054427;28;20863;-64
2021/03/21 06:43:36;;;;;;;1.57;1.30;;;3.20;95.30;;;;;;5051749;28;20472;-64
2021/03/21 06:46:28;;;;;;;1.30;1.10;;;3.30;92.00;;;;;;5054318;28;20457;-64
2021/03/21 06:49:31;;;;;;;1.20;1.00;;;3.50;93.90;;;;;;5051883;28;20462;-64
2021/03/21 06:52:04;;;;;;;3.20;2.27;;;3.60;92.70;;;;;;5054181;28;21045;-66
2021/03/21 06:54:52;;;;;;;1.20;1.00;;;3.70;92.50;;;;;;5051801;28;20493;-66
2021/03/21 06:57:59;;;;;;;1.30;1.23;;;3.80;91.40;;;;;;5052123;28;20481;-64
2021/03/21 07:01:04;;;;;;;1.20;1.07;;;3.90;92.20;;;;;;5020354;28;20554;-64
2021/03/21 07:04:01;;;;;;;4.57;1.30;;;4.00;90.30;;;;;;5051682;28;20449;-64
2021/03/21 07:07:07;;;;;;;1.20;0.97;;;4.10;89.90;;;;;;5053239;28;20477;-64
2021/03/21 07:10:12;;;;;;;1.20;1.10;;;4.00;90.40;;;;;;5051302;28;20458;-64
2021/03/21 07:13:31;;;;;;;1.30;1.10;;;4.00;89.80;;;;;;5051948;28;20493;-64
2021/03/21 07:16:25;;;;;;;1.87;1.60;;;4.10;89.70;;;;;;5053727;28;20500;-63
2021/03/21 07:19:29;;;;;;;1.30;1.20;;;4.10;90.20;;;;;;5051284;28;20461;-63
2021/03/21 07:22:34;;;;;;;1.70;1.30;;;4.00;91.10;;;;;;5053807;28;20465;-64
2021/03/21 07:25:25;;;;;;;1.40;1.03;;;3.80;92.20;;;;;;5053410;28;20889;-63
2021/03/21 07:28:04;;;;;;;2.63;1.37;;;4.00;90.70;;;;;;5014449;28;21001;-64
2021/03/21 07:30:44;;;;;;;1.30;1.10;;;3.90;90.30;;;;;;5053731;28;20453;-64
2021/03/21 07:33:40;;;;;;;1.40;1.20;;;3.80;90.00;;;;;;5051246;28;20548;-63
2021/03/21 07:36:25;;;;;;;1.20;1.20;;;3.90;90.10;;;;;;5046390;28;20454;-64
2021/03/21 07:39:22;;;;;;;2.33;1.67;;;3.90;91.40;;;;;;5050476;28;20485;-64
2021/03/21 07:42:13;;;;;;;1.40;1.03;;;4.10;91.30;;;;;;5050228;28;21001;-64
2021/03/21 07:44:59;;;;;;;2.60;1.50;;;4.20;89.80;;;;;;5049800;28;20450;-63
2021/03/21 07:47:41;;;;;;;1.23;1.10;;;4.20;89.80;;;;;;5050763;28;20468;-64
2021/03/21 07:50:21;;;;;;;1.20;1.00;;;4.30;90.40;;;;;;5053153;28;20489;-64
2021/03/21 07:53:15;;;;;;;2.30;1.23;;;4.40;91.00;;;;;;5049524;28;20515;-64
2021/03/21 07:55:49;;;;;;;4.47;2.10;;;4.40;90.60;;;;;;5053041;28;20871;-64
2021/03/21 07:58:22;;;;;;;3.30;1.50;;;4.40;89.20;;;;;;5050269;28;20486;-64
2021/03/21 08:00:50;;;;;;;3.87;1.90;;;4.40;90.40;;;;;;5052888;28;20457;-64
2021/03/21 08:03:46;;;;;;;1.20;1.00;;;4.40;90.10;;;;;;5050539;28;20450;-63
2021/03/21 08:06:25;;;;;;;1.20;1.00;;;4.50;90.80;;;;;;5052922;28;20453;-63
2021/03/21 08:08:58;;;;;;;1.20;1.13;;;4.50;90.80;;;;;;5050363;28;20470;-63
2021/03/21 08:11:29;;;;;;;1.30;1.27;;;4.50;90.10;;;;;;5052715;28;20489;-63
2021/03/21 08:14:07;;;;;;;1.63;1.20;;;4.30;86.30;;;;;;5050264;28;20497;-64
2021/03/21 08:16:42;;;;;;;3.10;1.93;;;4.20;85.30;;;;;;5052116;28;20544;-63
2021/03/21 08:19:13;;;;;;;1.30;1.10;;;4.10;85.70;;;;;;5049842;28;21104;-63
2021/03/21 08:21:42;;;;;;;1.20;1.17;;;4.10;86.60;;;;;;5051153;28;20480;-65
2021/03/21 08:24:15;;;;;;;1.20;1.20;;;4.20;86.00;;;;;;5048511;28;20993;-65
2021/03/21 08:26:44;;;;;;;1.30;1.10;;;4.20;85.40;;;;;;5051404;28;20553;-65
2021/03/21 08:29:13;;;;;;;1.20;1.00;;;4.10;85.30;;;;;;5049615;28;20460;-66
2021/03/21 08:31:42;;;;;;;1.20;1.00;;;4.30;86.50;;;;;;5051978;28;20470;-65
2021/03/21 08:34:40;;;;;;;1.20;1.00;;;4.30;84.50;;;;;;5049373;28;20465;-65
2021/03/21 08:37:30;;;;;;;1.20;0.90;;;4.30;84.50;;;;;;5049421;28;20486;-65
2021/03/21 08:40:02;;;;;;;1.20;1.10;;;4.30;85.30;;;;;;5051228;28;20482;-65
2021/03/21 08:42:32;;;;;;;1.30;1.20;;;4.30;85.20;;;;;;5049790;28;20825;-65
2021/03/21 08:45:18;;;;;;;2.57;1.60;;;4.30;85.30;;;;;;5051472;28;20456;-65
2021/03/21 08:47:45;;;;;;;1.30;1.10;;;4.40;85.10;;;;;;5048952;28;20454;-63
2021/03/21 08:50:31;;;;;;;1.30;1.20;;;4.40;85.30;;;;;;5050563;28;20451;-63
2021/03/21 08:52:58;;;;;;;1.20;1.00;;;4.40;84.20;;;;;;5049003;28;20813;-64
2021/03/21 08:55:29;;;;;;;1.20;1.00;;;4.40;85.10;;;;;;5051666;28;20476;-64
2021/03/21 08:57:56;;;;;;;1.70;1.30;;;4.50;85.50;;;;;;5048791;28;20493;-65
2021/03/21 09:00:32;;;;;;;1.43;1.40;;;4.50;85.10;;;;;;5051380;28;20462;-65
2021/03/21 09:02:59;;;;;;;1.50;1.10;;;4.50;85.80;;;;;;5048931;28;20528;-65
2021/03/21 09:05:27;;;;;;;1.30;1.10;;;4.50;86.30;;;;;;5050063;28;20497;-64
2021/03/21 09:08:07;;;;;;;1.50;1.40;;;4.60;87.20;;;;;;5046864;28;20454;-65
2021/03/21 09:10:35;;;;;;;1.20;1.00;;;4.70;87.20;;;;;;5051231;28;21009;-65
2021/03/21 09:13:18;;;;;;;1.40;1.40;;;4.60;87.10;;;;;;5048627;28;20465;-68
2021/03/21 09:15:46;;;;;;;1.30;1.20;;;4.70;88.30;;;;;;5051208;28;20454;-65
2021/03/21 09:18:26;;;;;;;1.20;1.10;;;4.80;87.60;;;;;;5047028;28;20548;-64
2021/03/21 09:21:08;;;;;;;1.40;1.30;;;4.70;87.40;;;;;;5051348;28;20469;-64
2021/03/21 09:23:43;;;;;;;1.37;1.10;;;4.70;87.70;;;;;;5048716;28;21155;-64
2021/03/21 09:26:42;;;;;;;2.07;1.57;;;4.70;88.20;;;;;;5051283;28;20450;-64
2021/03/21 09:29:20;;;;;;;1.20;1.13;;;4.60;88.00;;;;;;5048791;28;20842;-64
2021/03/21 09:31:48;;;;;;;1.20;1.00;;;4.70;88.10;;;;;;5050655;28;20457;-64
2021/03/21 09:34:23;;;;;;;1.20;1.00;;;4.80;88.50;;;;;;5047189;28;20604;-64
2021/03/21 09:36:55;;;;;;;2.57;1.70;;;4.70;88.20;;;;;;5050850;28;20473;-64
2021/03/21 09:39:25;;;;;;;1.30;1.23;;;4.70;87.80;;;;;;5048408;28;20458;-64
2021/03/21 09:41:53;;;;;;;1.20;1.10;;;4.60;88.50;;;;;;5050865;28;20458;-65
2021/03/21 09:44:31;;;;;;;4.17;1.93;;;4.80;88.60;;;;;;5048323;28;20516;-64
2021/03/21 09:47:09;;;;;;;1.50;1.43;;;4.70;88.00;;;;;;5050572;28;21173;-64
2021/03/21 09:49:46;;;;;;;1.20;1.10;;;4.70;88.80;;;;;;5048287;28;21271;-64
2021/03/21 09:52:16;;;;;;;2.37;1.77;;;4.90;89.50;;;;;;5050860;28;20503;-64
2021/03/21 09:54:51;;;;;;;1.30;1.10;;;5.00;88.00;;;;;;5048090;28;20469;-64
2021/03/21 09:57:56;;;;;;;1.30;1.13;;;4.90;87.50;;;;;;5050393;28;20481;-64
2021/03/21 10:00:27;;;;;;;1.20;1.00;;;4.80;87.60;;;;;;5050559;28;20837;-65
2021/03/21 10:03:03;;;;;;;1.20;1.10;;;4.80;89.00;;;;;;5048697;28;20453;-65
2021/03/21 10:05:37;;;;;;;1.30;1.10;;;4.90;89.70;;;;;;5050542;28;20458;-64
2021/03/21 10:08:13;;;;;;;1.30;1.10;;;4.90;89.10;;;;;;5048096;28;20455;-64
2021/03/21 10:10:45;;;;;;;1.20;1.00;;;5.00;89.20;;;;;;5050625;28;20471;-64
2021/03/21 10:13:30;;;;;;;1.20;1.00;;;5.00;88.80;;;;;;5047985;28;20493;-65
2021/03/21 10:16:19;;;;;;;1.20;1.00;;;5.10;89.70;;;;;;5050661;28;20940;-64
2021/03/21 10:18:48;;;;;;;1.50;1.20;;;5.20;90.20;;;;;;5047953;28;20487;-65
2021/03/21 10:21:31;;;;;;;1.40;1.40;;;5.20;88.20;;;;;;5050563;28;20450;-64
2021/03/21 10:24:30;;;;;;;1.73;1.57;;;5.30;89.40;;;;;;5047821;28;20466;-63
2021/03/21 10:27:24;;;;;;;1.40;1.40;;;5.30;87.90;;;;;;5050400;28;20636;-66
2021/03/21 10:30:03;;;;;;;1.30;1.03;;;5.50;89.10;;;;;;5040026;28;20454;-65
2021/03/21 10:32:32;;;;;;;1.20;1.00;;;5.50;88.90;;;;;;5050371;28;20504;-64
2021/03/21 10:35:00;;;;;;;1.50;1.27;;;5.50;88.70;;;;;;5046396;28;20461;-64
2021/03/21 10:37:51;;;;;;;2.70;1.50;;;5.70;88.30;;;;;;5050455;28;20490;-63
2021/03/21 10:40:43;;;;;;;1.43;1.20;;;5.70;89.00;;;;;;5050793;28;21010;-63
2021/03/21 10:43:53;;;;;;;1.90;1.83;;;5.70;87.40;;;;;;5040246;28;20489;-64
2021/03/21 10:46:45;;;;;;;1.20;1.10;;;5.70;87.00;;;;;;5054096;28;20493;-65
2021/03/21 10:49:13;;;;;;;1.20;1.07;;;5.70;87.60;;;;;;5051583;28;20588;-63
2021/03/21 10:52:06;;;;;;;1.20;1.00;;;5.70;87.70;;;;;;5053920;28;20945;-66
2021/03/21 10:54:33;;;;;;;1.40;1.20;;;5.80;90.10;;;;;;5041779;28;20795;-66
2021/03/21 10:57:25;;;;;;;1.20;1.20;;;5.90;91.60;;;;;;5052429;28;20486;-66
2021/03/21 11:00:13;;;;;;;2.33;1.90;;;5.70;91.80;;;;;;5051070;28;20465;-65
2021/03/21 11:02:43;;;;;;;1.43;1.30;;;5.40;93.70;;;;;;5053657;28;20461;-68
2021/03/21 11:05:33;;;;;;;1.47;1.27;;;5.30;93.60;;;;;;5053213;28;20458;-66
2021/03/21 11:08:05;;;;;;;1.20;1.00;;;5.30;95.50;;;;;;5050771;28;20454;-66
2021/03/21 11:10:34;;;;;;;1.20;1.00;;;5.30;95.80;;;;;;5053485;28;20455;-66
2021/03/21 11:13:01;;;;;;;1.20;1.00;;;5.20;96.70;;;;;;5050400;28;20457;-66
2021/03/21 11:15:38;;;;;;;1.20;1.03;;;5.30;96.90;;;;;;5053172;28;20473;-67
2021/03/21 11:18:25;;;;;;;1.20;1.00;;;5.40;98.00;;;;;;5050485;28;20999;-66
2021/03/21 11:21:04;;;;;;;1.20;1.10;;;5.40;98.00;;;;;;5053280;28;20953;-67
2021/03/21 11:23:44;;;;;;;1.20;1.00;;;5.20;98.00;;;;;;5050404;28;20462;-66
2021/03/21 11:26:22;;;;;;;2.13;1.20;;;5.10;98.00;;;;;;5052014;28;20477;-67
2021/03/21 11:28:48;;;;;;;1.20;1.00;;;5.30;98.00;;;;;;5050945;28;20498;-67
2021/03/21 11:31:30;;;;;;;1.20;1.10;;;5.40;98.00;;;;;;5051956;28;20465;-67
2021/03/21 11:33:58;;;;;;;1.60;1.50;;;5.30;97.90;;;;;;5051156;28;20468;-64
2021/03/21 11:36:28;;;;;;;1.30;1.20;;;5.30;98.00;;;;;;5053248;28;20458;-67
2021/03/21 11:38:57;;;;;;;1.50;1.10;;;5.50;98.00;;;;;;5050462;28;20482;-67
2021/03/21 11:41:37;;;;;;;1.83;1.47;;;5.60;98.00;;;;;;5051899;28;20454;-65
2021/03/21 11:44:20;;;;;;;1.20;1.20;;;5.70;98.00;;;;;;5050239;28;20551;-67
2021/03/21 11:46:48;;;;;;;1.60;1.43;;;5.80;98.00;;;;;;5052526;28;20517;-67
2021/03/21 11:49:16;;;;;;;1.77;1.50;;;5.80;98.00;;;;;;5050573;28;20484;-67
2021/03/21 11:51:45;;;;;;;1.30;1.10;;;5.70;98.00;;;;;;5051884;28;20523;-67
2021/03/21 11:54:19;;;;;;;1.60;1.60;;;5.60;98.00;;;;;;5050049;28;20722;-67
2021/03/21 11:57:00;;;;;;;1.30;1.20;;;5.70;98.00;;;;;;5052402;28;20483;-67
2021/03/21 11:59:31;;;;;;;1.67;1.30;;;5.50;98.00;;;;;;5050437;28;20457;-67
2021/03/21 12:01:59;;;;;;;1.20;1.00;;;5.40;98.00;;;;;;5052342;28;20484;-67
2021/03/21 12:04:32;;;;;;;3.10;1.63;;;5.30;98.00;;;;;;5049937;28;20454;-67
2021/03/21 12:06:59;;;;;;;1.20;1.00;;;5.30;98.00;;;;;;5052044;28;20491;-67
2021/03/21 12:09:29;;;;;;;1.63;1.20;;;5.20;98.00;;;;;;5049980;28;20512;-67
2021/03/21 12:12:00;;;;;;;1.20;1.00;;;5.30;98.00;;;;;;5052200;28;20459;-67
2021/03/21 12:14:46;;;;;;;2.03;1.50;;;5.50;98.00;;;;;;5049499;28;20533;-67
2021/03/21 12:17:34;;;;;;;1.20;1.07;;;5.70;98.00;;;;;;5051963;28;21005;-65
2021/03/21 12:20:25;;;;;;;1.83;1.20;;;5.80;98.00;;;;;;5049895;28;20466;-65
2021/03/21 12:22:52;;;;;;;1.93;1.57;;;5.80;98.00;;;;;;5050432;28;20462;-65
2021/03/21 12:25:23;;;;;;;1.57;1.30;;;5.60;98.00;;;;;;5051572;28;20925;-65
2021/03/21 12:27:53;;;;;;;1.20;1.00;;;5.70;98.00;;;;;;5051500;28;20789;-65
2021/03/21 12:30:30;;;;;;;1.20;1.10;;;5.70;98.00;;;;;;5052045;28;20566;-68
2021/03/21 12:33:15;;;;;;;1.40;1.20;;;5.80;98.00;;;;;;5049229;28;20468;-67
2021/03/21 12:35:43;;;;;;;3.00;1.97;;;5.90;98.00;;;;;;5051743;28;20460;-63
2021/03/21 12:38:23;;;;;;;1.57;1.50;;;5.80;98.00;;;;;;5049583;28;21181;-64
2021/03/21 12:40:50;;;;;;;1.20;0.90;;;5.70;98.00;;;;;;5051757;28;20463;-64
2021/03/21 12:43:27;;;;;;;1.40;1.10;;;5.60;98.00;;;;;;5049110;28;20478;-65
2021/03/21 12:46:06;;;;;;;2.10;1.63;;;5.60;98.00;;;;;;5051563;28;20465;-64
2021/03/21 12:48:46;;;;;;;1.20;1.20;;;5.50;98.00;;;;;;5049248;28;20445;-64
2021/03/21 12:51:26;;;;;;;1.20;1.00;;;5.60;98.00;;;;;;5051531;28;20477;-64
2021/03/21 12:53:53;;;;;;;1.20;1.10;;;5.60;98.00;;;;;;5048895;28;20458;-64
2021/03/21 12:56:19;;;;;;;2.07;1.30;;;5.60;98.00;;;;;;5051382;28;20478;-65
2021/03/21 12:58:46;;;;;;;1.20;1.00;;;5.50;98.00;;;;;;5049144;28;20483;-65
2021/03/21 13:01:12;;;;;;;1.50;1.40;;;5.50;98.00;;;;;;5051240;28;20473;-64
2021/03/21 13:03:40;;;;;;;2.87;1.73;;;5.50;98.00;;;;;;5048307;28;20497;-65
2021/03/21 13:06:11;;;;;;;1.47;1.03;;;5.60;98.00;;;;;;5051148;28;20483;-65
2021/03/21 13:08:37;;;;;;;1.20;1.10;;;5.80;98.00;;;;;;5048631;28;20977;-65
2021/03/21 13:11:07;;;;;;;1.20;1.00;;;5.90;98.00;;;;;;5051103;28;20462;-65
2021/03/21 13:13:34;;;;;;;2.80;1.57;;;5.90;98.00;;;;;;5048232;28;20505;-65
2021/03/21 13:16:02;;;;;;;1.30;1.10;;;5.90;98.00;;;;;;5051354;28;20537;-65
2021/03/21 13:18:30;;;;;;;1.20;1.00;;;6.00;98.00;;;;;;5048372;28;20663;-65
2021/03/21 13:20:59;;;;;;;1.20;1.10;;;6.10;98.00;;;;;;5051268;28;21046;-65
2021/03/21 13:23:26;;;;;;;1.50;1.30;;;6.10;98.00;;;;;;5048751;28;20455;-65
2021/03/21 13:25:53;;;;;;;1.20;0.90;;;6.20;98.00;;;;;;5051170;28;20464;-65
2021/03/21 13:28:19;;;;;;;1.67;1.30;;;6.30;98.00;;;;;;5048533;28;20823;-65
2021/03/21 13:30:49;;;;;;;1.40;1.23;;;6.20;98.00;;;;;;5051349;28;20474;-65
2021/03/21 13:33:17;;;;;;;1.20;0.97;;;6.20;98.00;;;;;;5049078;28;20473;-65
2021/03/21 13:35:43;;;;;;;1.20;1.10;;;6.00;98.00;;;;;;5049596;28;20941;-65
2021/03/21 13:38:10;;;;;;;1.20;1.03;;;5.90;98.00;;;;;;5048279;28;20495;-65
2021/03/21 13:40:41;;;;;;;2.67;1.80;;;5.80;98.00;;;;;;5050411;28;20458;-65
2021/03/21 13:43:09;;;;;;;2.27;1.97;;;5.70;98.00;;;;;;5048797;28;20466;-65
2021/03/21 13:45:38;;;;;;;1.20;1.00;;;5.80;98.00;;;;;;5049594;28;20531;-65
2021/03/21 13:48:05;;;;;;;2.37;1.77;;;5.90;98.00;;;;;;5048653;28;20565;-65
2021/03/21 13:50:33;;;;;;;1.20;1.00;;;6.00;98.00;;;;;;5049501;28;20465;-65